createdAt,value
2018-11-11T00:00:01.233Z,1.00
2018-11-11T00:02:29.074Z,1.20
2018-11-11T00:04:56.787Z,1.10
2018-11-11T00:07:24.598Z,1.20
2018-11-11T00:09:52.349Z,1.10
2018-11-11T00:12:20.043Z,1.10
2018-11-11T00:14:47.759Z,1.30
2018-11-11T00:17:15.450Z,1.10
2018-11-11T00:19:43.205Z,1.00
2018-11-11T00:22:10.865Z,1.00
2018-11-11T00:24:39.300Z,1.07
2018-11-11T00:27:07.076Z,0.90
2018-11-11T00:29:34.821Z,1.27
2018-11-11T00:32:02.679Z,1.20
2018-11-11T00:34:30.351Z,1.03
2018-11-11T00:36:57.997Z,1.20
2018-11-11T00:39:25.669Z,1.17
2018-11-11T00:41:53.453Z,1.30
2018-11-11T00:44:21.099Z,1.27
2018-11-11T00:46:48.981Z,1.20
2018-11-11T00:49:16.621Z,1.33
2018-11-11T00:51:44.345Z,1.20
2018-11-11T00:54:12.347Z,1.03
2018-11-11T00:56:40.211Z,1.10
2018-11-11T00:59:07.939Z,1.30
2018-11-11T01:01:36.021Z,1.47
2018-11-11T01:04:04.451Z,1.30
2018-11-11T01:06:33.020Z,1.60
2018-11-11T01:09:01.216Z,1.13
2018-11-11T01:11:29.049Z,1.07
2018-11-11T01:13:56.839Z,1.20
2018-11-11T01:16:24.865Z,1.37
2018-11-11T01:18:52.790Z,1.30
2018-11-11T01:21:20.570Z,1.40
2018-11-11T01:23:48.271Z,1.33
2018-11-11T01:26:16.164Z,1.20
2018-11-11T01:28:43.877Z,1.50
2018-11-11T01:31:11.915Z,1.10
2018-11-11T01:33:39.676Z,1.40
2018-11-11T01:36:07.532Z,1.17
2018-11-11T01:38:35.409Z,1.30
2018-11-11T01:41:04.342Z,1.17
2018-11-11T01:43:32.958Z,1.50
2018-11-11T01:46:00.724Z,1.30
2018-11-11T01:48:28.741Z,1.60
2018-11-11T01:50:56.598Z,1.67
2018-11-11T01:53:24.313Z,1.42
2018-11-11T01:55:52.253Z,1.00
2018-11-11T01:58:19.947Z,1.20
2018-11-11T02:00:47.560Z,1.40
2018-11-11T02:03:15.496Z,1.63
2018-11-11T02:05:43.146Z,1.30
2018-11-11T02:08:10.886Z,1.37
2018-11-11T02:10:38.526Z,1.20
2018-11-11T02:13:06.447Z,1.30
2018-11-11T02:15:34.120Z,1.50
2018-11-11T02:18:01.913Z,1.30
2018-11-11T02:20:29.919Z,1.20
2018-11-11T02:22:57.627Z,1.83
2018-11-11T02:25:25.355Z,1.10
2018-11-11T02:27:53.022Z,1.10
2018-11-11T02:30:21.250Z,1.20
2018-11-11T02:32:49.052Z,1.40
2018-11-11T02:35:16.846Z,1.30
2018-11-11T02:37:44.792Z,1.07
2018-11-11T02:40:13.425Z,1.07
2018-11-11T02:42:41.263Z,1.40
2018-11-11T02:45:10.384Z,1.13
2018-11-11T02:47:38.077Z,1.30
2018-11-11T02:50:07.328Z,1.20
2018-11-11T02:52:35.073Z,0.93
2018-11-11T02:55:02.974Z,1.60
2018-11-11T02:57:30.893Z,1.30
2018-11-11T02:59:59.780Z,1.32
2018-11-11T03:02:27.606Z,1.60
2018-11-11T03:04:55.500Z,1.50
2018-11-11T03:07:23.425Z,1.30
2018-11-11T03:09:51.420Z,1.30
2018-11-11T03:12:19.187Z,2.02
2018-11-11T03:14:46.881Z,1.17
2018-11-11T03:17:14.633Z,1.50
2018-11-11T03:19:42.462Z,1.40
2018-11-11T03:22:10.221Z,1.43
2018-11-11T03:24:37.960Z,1.30
2018-11-11T03:27:05.805Z,1.30
2018-11-11T03:29:33.603Z,1.53
2018-11-11T03:32:01.387Z,1.30
2018-11-11T03:34:29.169Z,1.10
2018-11-11T03:36:57.490Z,1.20
2018-11-11T03:39:25.427Z,1.50
2018-11-11T03:41:54.401Z,1.10
2018-11-11T03:44:23.355Z,1.00
2018-11-11T03:46:51.420Z,1.20
2018-11-11T03:49:19.419Z,1.23
2018-11-11T03:51:47.599Z,1.10
2018-11-11T03:54:15.583Z,1.30
2018-11-11T03:56:43.534Z,1.57
2018-11-11T03:59:11.868Z,1.40
2018-11-11T04:01:40.033Z,1.30
2018-11-11T04:04:08.065Z,1.40
2018-11-11T04:06:36.061Z,1.25
2018-11-11T04:09:09.970Z,1.30
2018-11-11T04:11:38.453Z,0.87
2018-11-11T04:14:06.545Z,1.20
2018-11-11T04:16:34.600Z,1.10
2018-11-11T04:19:02.989Z,1.10
2018-11-11T04:21:30.950Z,1.10
2018-11-11T04:23:58.988Z,1.10
2018-11-11T04:26:27.042Z,1.30
2018-11-11T04:28:55.157Z,0.93
2018-11-11T04:31:23.289Z,1.70
2018-11-11T04:33:51.585Z,1.27
2018-11-11T04:36:19.649Z,1.00
2018-11-11T04:38:47.586Z,1.00
2018-11-11T04:41:15.570Z,1.30
2018-11-11T04:43:43.592Z,1.35
2018-11-11T04:46:11.641Z,0.90
2018-11-11T04:48:39.956Z,1.30
2018-11-11T04:51:07.916Z,0.95
2018-11-11T04:53:35.797Z,1.30
2018-11-11T04:56:04.582Z,1.90
2018-11-11T04:58:32.528Z,1.95
2018-11-11T05:01:00.509Z,1.23
2018-11-11T05:03:28.570Z,1.27
2018-11-11T05:05:56.409Z,1.55
2018-11-11T05:08:24.526Z,1.40
2018-11-11T05:10:52.708Z,1.12
2018-11-11T05:13:20.652Z,1.10
2018-11-11T05:15:48.595Z,1.32
2018-11-11T05:18:16.614Z,1.35
2018-11-11T05:20:44.479Z,0.98
2018-11-11T05:23:12.585Z,0.90
2018-11-11T05:25:41.694Z,1.52
2018-11-11T05:28:09.881Z,1.00
2018-11-11T05:30:38.152Z,0.82
2018-11-11T05:33:06.360Z,1.35
2018-11-11T05:35:34.469Z,1.27
2018-11-11T05:38:03.272Z,1.10
2018-11-11T05:40:32.173Z,1.00
2018-11-11T05:43:00.080Z,1.00
2018-11-11T05:45:27.917Z,1.10
2018-11-11T05:47:56.016Z,1.00
2018-11-11T05:50:24.255Z,1.10
2018-11-11T05:52:52.184Z,1.37
2018-11-11T05:55:20.144Z,1.30
2018-11-11T05:57:48.062Z,1.05
2018-11-11T06:00:17.667Z,1.00
2018-11-11T06:02:45.705Z,1.10
2018-11-11T06:05:14.626Z,1.20
2018-11-11T06:07:42.580Z,1.10
2018-11-11T06:10:12.063Z,1.10
2018-11-11T06:12:39.895Z,1.30
2018-11-11T06:15:09.323Z,1.57
2018-11-11T06:17:37.534Z,1.00
2018-11-11T06:20:10.009Z,1.10
2018-11-11T06:22:39.144Z,1.20
2018-11-11T06:25:07.597Z,1.02
2018-11-11T06:27:35.551Z,1.10
2018-11-11T06:30:04.076Z,1.60
2018-11-11T06:32:31.944Z,1.00
2018-11-11T06:34:59.799Z,1.20
2018-11-11T06:37:27.681Z,0.80
2018-11-11T06:39:55.561Z,1.07
2018-11-11T06:42:23.589Z,0.82
2018-11-11T06:44:51.574Z,0.90
2018-11-11T06:47:19.605Z,1.10
2018-11-11T06:49:47.592Z,1.30
2018-11-11T06:52:15.490Z,1.25
2018-11-11T06:54:43.480Z,0.90
2018-11-11T06:57:11.358Z,1.20
2018-11-11T06:59:39.241Z,1.00
2018-11-11T07:02:07.133Z,1.17
2018-11-11T07:04:34.998Z,1.10
2018-11-11T07:07:02.875Z,1.32
2018-11-11T07:09:30.873Z,1.50
2018-11-11T07:11:58.768Z,1.70
2018-11-11T07:14:26.689Z,1.53
2018-11-11T07:16:54.594Z,1.63
2018-11-11T07:19:22.486Z,1.30
2018-11-11T07:21:50.497Z,1.17
2018-11-11T07:24:18.398Z,1.90
2018-11-11T07:26:46.267Z,1.20
2018-11-11T07:29:14.289Z,1.65
2018-11-11T07:31:42.161Z,1.17
2018-11-11T07:34:10.122Z,1.20
2018-11-11T07:36:37.904Z,1.03
2018-11-11T07:39:10.882Z,0.95
2018-11-11T07:41:38.697Z,1.20
2018-11-11T07:44:06.617Z,1.13
2018-11-11T07:46:34.566Z,1.25
2018-11-11T07:49:02.425Z,1.10
2018-11-11T07:51:30.571Z,1.50
2018-11-11T07:53:58.545Z,1.47
2018-11-11T07:56:26.497Z,0.93
2018-11-11T07:58:54.478Z,1.20
2018-11-11T08:01:22.423Z,1.10
2018-11-11T08:03:50.490Z,1.45
2018-11-11T08:06:18.687Z,1.40
2018-11-11T08:08:46.660Z,1.10
2018-11-11T08:11:25.945Z,1.10
2018-11-11T08:13:53.895Z,1.50
2018-11-11T08:16:21.839Z,1.10
2018-11-11T08:18:49.899Z,1.03
2018-11-11T08:21:17.869Z,1.00
2018-11-11T08:23:45.824Z,0.83
2018-11-11T08:26:14.079Z,1.30
2018-11-11T08:28:42.003Z,0.93
2018-11-11T08:31:09.945Z,1.10
2018-11-11T08:33:37.860Z,1.05
2018-11-11T08:36:05.847Z,0.97
2018-11-11T08:38:33.905Z,1.07
2018-11-11T08:41:02.000Z,1.40
2018-11-11T08:43:30.144Z,1.03
2018-11-11T08:45:58.106Z,1.07
2018-11-11T08:48:26.008Z,1.10
2018-11-11T08:50:53.605Z,0.90
2018-11-11T08:53:21.630Z,1.17
2018-11-11T08:55:49.421Z,0.70
2018-11-11T08:58:17.228Z,0.87
2018-11-11T09:00:45.028Z,0.90
2018-11-11T09:03:12.934Z,0.90
2018-11-11T09:05:40.728Z,1.20
2018-11-11T09:08:08.362Z,1.20
2018-11-11T09:10:36.121Z,1.10
2018-11-11T09:13:04.101Z,0.90
2018-11-11T09:15:31.796Z,0.80
2018-11-11T09:17:59.479Z,1.13
2018-11-11T09:20:27.176Z,0.97
2018-11-11T09:22:54.788Z,0.90
2018-11-11T09:25:22.528Z,0.80
2018-11-11T09:27:50.195Z,0.70
2018-11-11T09:30:18.018Z,0.80
2018-11-11T09:32:45.809Z,0.80
2018-11-11T09:35:13.815Z,0.97
2018-11-11T09:37:41.603Z,1.07
2018-11-11T09:40:10.431Z,0.70
2018-11-11T09:42:38.283Z,0.63
2018-11-11T09:45:08.411Z,1.20
2018-11-11T09:47:36.095Z,1.00
2018-11-11T09:50:05.942Z,0.73
2018-11-11T09:52:33.701Z,0.70
2018-11-11T09:55:01.555Z,0.80
2018-11-11T09:57:30.346Z,0.70
2018-11-11T09:59:58.033Z,0.80
2018-11-11T10:02:25.718Z,1.00
2018-11-11T10:05:01.785Z,1.00
2018-11-11T10:07:39.313Z,0.50
2018-11-11T10:10:14.812Z,0.80
2018-11-11T10:13:46.754Z,0.93
2018-11-11T10:16:24.855Z,0.70
2018-11-11T10:18:58.353Z,0.80
2018-11-11T10:21:34.748Z,0.80
2018-11-11T10:24:08.135Z,0.67
2018-11-11T10:26:41.077Z,0.90
2018-11-11T10:29:18.858Z,0.70
2018-11-11T10:31:57.968Z,0.73
2018-11-11T10:34:34.716Z,1.00
2018-11-11T10:37:16.985Z,0.83
2018-11-11T10:39:50.240Z,0.57
2018-11-11T10:43:26.759Z,0.93
2018-11-11T10:46:58.638Z,0.90
2018-11-11T10:49:30.376Z,0.80
2018-11-11T10:51:58.098Z,0.80
2018-11-11T10:54:26.121Z,0.93
2018-11-11T10:56:57.547Z,0.87
2018-11-11T10:59:25.717Z,0.90
2018-11-11T11:01:59.609Z,0.83
2018-11-11T11:04:27.620Z,0.77
2018-11-11T11:07:00.910Z,1.27
2018-11-11T11:09:28.720Z,1.00
2018-11-11T11:11:57.267Z,0.80
2018-11-11T11:14:25.135Z,0.67
2018-11-11T11:16:53.113Z,0.60
2018-11-11T11:19:20.882Z,0.73
2018-11-11T11:21:50.153Z,0.80
2018-11-11T11:24:17.919Z,0.90
2018-11-11T11:26:45.830Z,0.70
2018-11-11T11:29:13.690Z,0.60
2018-11-11T11:31:41.528Z,0.73
2018-11-11T11:34:09.170Z,0.80
2018-11-11T11:36:36.983Z,0.70
2018-11-11T11:39:07.089Z,0.80
2018-11-11T11:41:34.918Z,0.80
2018-11-11T11:44:02.832Z,0.60
2018-11-11T11:46:30.757Z,0.90
2018-11-11T11:48:58.680Z,1.10
2018-11-11T11:51:26.375Z,0.77
2018-11-11T11:53:54.054Z,1.03
2018-11-11T11:56:21.776Z,0.73
2018-11-11T11:58:49.450Z,0.77
2018-11-11T12:01:17.276Z,0.80
2018-11-11T12:03:44.897Z,0.90
2018-11-11T12:06:12.725Z,0.80
2018-11-11T12:08:40.446Z,1.00
2018-11-11T12:11:08.360Z,1.13
2018-11-11T12:13:36.033Z,1.23
2018-11-11T12:16:03.711Z,0.87
2018-11-11T12:18:31.468Z,1.10
2018-11-11T12:20:59.103Z,1.10
2018-11-11T12:23:27.006Z,0.87
2018-11-11T12:25:54.657Z,0.87
2018-11-11T12:28:22.386Z,0.80
2018-11-11T12:30:50.156Z,1.00
2018-11-11T12:33:17.859Z,1.10
2018-11-11T12:35:45.555Z,1.00
2018-11-11T12:38:13.470Z,1.20
2018-11-11T12:40:41.128Z,1.10
2018-11-11T12:43:08.917Z,1.20
2018-11-11T12:45:36.556Z,0.87
2018-11-11T12:48:05.373Z,1.10
2018-11-11T12:50:33.073Z,1.03
2018-11-11T12:53:00.838Z,1.00
2018-11-11T12:55:28.882Z,1.03
2018-11-11T12:58:04.014Z,0.93
2018-11-11T13:00:31.748Z,1.10
2018-11-11T13:02:59.929Z,1.37
2018-11-11T13:05:28.721Z,1.10
2018-11-11T13:07:56.690Z,1.53
2018-11-11T13:10:24.699Z,1.60
2018-11-11T13:12:52.539Z,1.23
2018-11-11T13:15:21.113Z,1.30
2018-11-11T13:17:48.899Z,1.63
2018-11-11T13:20:17.832Z,1.00
2018-11-11T13:22:45.736Z,1.40
2018-11-11T13:25:13.711Z,1.10
2018-11-11T13:27:41.077Z,1.33
2018-11-11T13:30:12.911Z,1.33
2018-11-11T13:32:40.345Z,1.30
2018-11-11T13:35:10.520Z,1.07
2018-11-11T13:37:37.944Z,1.23
2018-11-11T13:40:12.395Z,1.17
2018-11-11T13:42:39.999Z,1.10
2018-11-11T13:45:09.487Z,1.70
2018-11-11T13:47:36.904Z,1.30
2018-11-11T13:50:06.441Z,1.33
2018-11-11T13:52:33.871Z,1.20
2018-11-11T13:55:01.266Z,1.20
2018-11-11T13:57:28.738Z,1.57
2018-11-11T13:59:56.206Z,1.40
2018-11-11T14:02:23.615Z,1.27
2018-11-11T14:04:51.006Z,1.50
2018-11-11T14:07:18.486Z,1.23
2018-11-11T14:09:45.925Z,1.47
2018-11-11T14:12:13.418Z,1.20
2018-11-11T14:14:40.763Z,1.50
2018-11-11T14:17:08.254Z,0.97
2018-11-11T14:19:35.989Z,1.30
2018-11-11T14:22:06.403Z,1.50
2018-11-11T14:24:33.794Z,1.30
2018-11-11T14:27:01.147Z,1.60
2018-11-11T14:29:28.527Z,1.30
2018-11-11T14:31:56.003Z,2.00
2018-11-11T14:34:23.530Z,1.40
2018-11-11T14:36:50.885Z,1.70
2018-11-11T14:39:18.292Z,1.60
2018-11-11T14:41:45.708Z,1.30
2018-11-11T14:44:13.086Z,1.40
2018-11-11T14:46:40.718Z,1.60
2018-11-11T14:49:08.837Z,2.00
2018-11-11T14:51:36.217Z,1.50
2018-11-11T14:54:03.597Z,1.43
2018-11-11T14:56:31.271Z,1.50
2018-11-11T14:58:58.936Z,1.70
2018-11-11T15:01:26.130Z,1.33
2018-11-11T15:03:53.590Z,1.77
2018-11-11T15:06:20.844Z,1.63
2018-11-11T15:08:48.141Z,1.43
2018-11-11T15:11:15.560Z,1.60
2018-11-11T15:13:42.919Z,1.77
2018-11-11T15:16:10.170Z,1.83
2018-11-11T15:18:37.466Z,1.80
2018-11-11T15:21:04.882Z,2.27
2018-11-11T15:23:32.039Z,1.50
2018-11-11T15:25:59.330Z,2.10
2018-11-11T15:28:26.932Z,2.10
2018-11-11T15:30:54.341Z,2.10
2018-11-11T15:33:21.518Z,2.40
2018-11-11T15:35:48.987Z,2.50
2018-11-11T15:38:16.339Z,1.83
2018-11-11T15:40:43.704Z,2.20
2018-11-11T15:43:11.035Z,1.80
2018-11-11T15:45:38.326Z,3.30
2018-11-11T15:48:05.991Z,2.17
2018-11-11T15:50:34.120Z,2.10
2018-11-11T15:53:02.723Z,1.90
2018-11-11T15:55:31.291Z,1.50
2018-11-11T15:57:58.690Z,1.70
2018-11-11T16:00:28.160Z,1.33
2018-11-11T16:02:55.728Z,1.73
2018-11-11T16:05:23.366Z,1.97
2018-11-11T16:07:53.110Z,1.93
2018-11-11T16:10:22.772Z,2.37
2018-11-11T16:12:50.643Z,1.83
2018-11-11T16:15:20.894Z,1.95
2018-11-11T16:17:51.363Z,1.60
2018-11-11T16:20:23.494Z,1.70
2018-11-11T16:22:52.376Z,2.10
2018-11-11T16:25:20.825Z,2.00
2018-11-11T16:27:48.559Z,2.20
2018-11-11T16:30:23.228Z,1.70
2018-11-11T16:32:51.082Z,2.13
2018-11-11T16:35:19.796Z,1.40
2018-11-11T16:37:47.271Z,2.53
2018-11-11T16:40:25.102Z,1.80
2018-11-11T16:42:53.020Z,1.60
2018-11-11T16:45:21.831Z,1.83
2018-11-11T16:47:50.397Z,2.57
2018-11-11T16:50:20.211Z,1.83
2018-11-11T16:52:48.286Z,1.80
2018-11-11T16:55:16.980Z,1.93
2018-11-11T16:57:44.393Z,1.33
2018-11-11T17:00:14.629Z,1.70
2018-11-11T17:02:43.740Z,1.70
2018-11-11T17:05:13.574Z,1.37
2018-11-11T17:07:42.107Z,1.87
2018-11-11T17:10:11.107Z,2.00
2018-11-11T17:12:39.201Z,1.40
2018-11-11T17:15:08.140Z,1.63
2018-11-11T17:17:35.604Z,1.60
2018-11-11T17:20:03.010Z,1.30
2018-11-11T17:22:32.888Z,1.20
2018-11-11T17:24:59.998Z,1.50
2018-11-11T17:27:27.287Z,1.63
2018-11-11T17:29:55.059Z,1.53
2018-11-11T17:32:22.381Z,1.50
2018-11-11T17:34:49.562Z,1.30
2018-11-11T17:37:16.902Z,1.40
2018-11-11T17:39:44.322Z,1.40
2018-11-11T17:42:14.862Z,2.33
2018-11-11T17:44:42.118Z,2.23
2018-11-11T17:47:09.410Z,2.17
2018-11-11T17:49:37.028Z,1.67
2018-11-11T17:52:05.483Z,1.70
2018-11-11T17:54:32.886Z,2.30
2018-11-11T17:57:00.238Z,1.50
2018-11-11T17:59:27.907Z,1.47
2018-11-11T18:01:55.472Z,1.67
2018-11-11T18:04:22.989Z,2.10
2018-11-11T18:06:50.459Z,2.00
2018-11-11T18:09:21.139Z,2.07
2018-11-11T18:11:48.505Z,2.00
2018-11-11T18:14:15.993Z,1.60
2018-11-11T18:16:43.366Z,1.60
2018-11-11T18:19:10.731Z,1.97
2018-11-11T18:21:38.071Z,1.83
2018-11-11T18:24:05.586Z,1.57
2018-11-11T18:26:33.076Z,1.60
2018-11-11T18:29:00.412Z,1.90
2018-11-11T18:31:27.730Z,1.60
2018-11-11T18:33:55.078Z,1.40
2018-11-11T18:36:22.415Z,1.60
2018-11-11T18:38:49.750Z,1.87
2018-11-11T18:41:17.078Z,1.67
2018-11-11T18:43:44.798Z,1.67
2018-11-11T18:46:12.148Z,1.63
2018-11-11T18:48:39.987Z,1.70
2018-11-11T18:51:07.313Z,1.60
2018-11-11T18:53:34.698Z,1.40
2018-11-11T18:56:02.023Z,1.43
2018-11-11T18:58:29.392Z,1.40
2018-11-11T19:00:56.743Z,1.40
2018-11-11T19:03:24.079Z,2.20
2018-11-11T19:05:51.408Z,1.60
2018-11-11T19:08:18.774Z,1.60
2018-11-11T19:10:46.231Z,1.60
2018-11-11T19:13:13.530Z,1.43
2018-11-11T19:15:40.843Z,1.10
2018-11-11T19:18:08.210Z,1.27
2018-11-11T19:20:35.587Z,1.37
2018-11-11T19:23:02.935Z,1.60
2018-11-11T19:25:31.120Z,1.20
2018-11-11T19:27:59.694Z,1.30
2018-11-11T19:30:27.657Z,1.50
2018-11-11T19:32:54.970Z,1.33
2018-11-11T19:35:22.390Z,1.50
2018-11-11T19:37:51.100Z,1.10
2018-11-11T19:40:20.472Z,1.60
2018-11-11T19:42:48.251Z,1.60
2018-11-11T19:45:19.794Z,1.47
2018-11-11T19:47:47.166Z,1.70
2018-11-11T19:50:16.710Z,1.42
2018-11-11T19:52:45.446Z,1.32
2018-11-11T19:55:14.199Z,1.40
2018-11-11T19:57:41.953Z,0.90
2018-11-11T20:00:11.431Z,1.20
2018-11-11T20:02:39.225Z,1.00
2018-11-11T20:05:07.757Z,0.82
2018-11-11T20:07:35.125Z,1.00
2018-11-11T20:10:02.514Z,0.90
2018-11-11T20:12:29.839Z,1.10
2018-11-11T20:14:57.190Z,1.00
2018-11-11T20:17:24.549Z,1.43
2018-11-11T20:19:52.462Z,1.93
2018-11-11T20:22:19.855Z,1.35
2018-11-11T20:24:47.217Z,1.40
2018-11-11T20:27:14.570Z,1.30
2018-11-11T20:29:41.946Z,1.67
2018-11-11T20:32:09.322Z,1.43
2018-11-11T20:34:36.751Z,1.20
2018-11-11T20:37:04.273Z,1.65
2018-11-11T20:39:31.609Z,1.97
2018-11-11T20:42:02.047Z,1.32
2018-11-11T20:44:29.435Z,2.70
2018-11-11T20:46:56.814Z,1.85
2018-11-11T20:49:24.238Z,1.05
2018-11-11T20:51:51.603Z,1.47
2018-11-11T20:54:18.907Z,1.22
2018-11-11T20:56:46.270Z,1.32
2018-11-11T20:59:13.535Z,2.25
2018-11-11T21:01:40.811Z,2.00
2018-11-11T21:04:09.064Z,1.40
2018-11-11T21:06:36.342Z,1.20
2018-11-11T21:09:09.412Z,1.20
2018-11-11T21:11:36.957Z,1.30
2018-11-11T21:14:04.690Z,1.32
2018-11-11T21:16:32.878Z,1.70
2018-11-11T21:19:00.180Z,1.20
2018-11-11T21:21:29.608Z,1.50
2018-11-11T21:23:56.907Z,1.70
2018-11-11T21:26:24.203Z,1.40
2018-11-11T21:28:51.538Z,1.15
2018-11-11T21:31:18.866Z,1.10
2018-11-11T21:33:46.212Z,0.80
2018-11-11T21:36:13.563Z,0.90
2018-11-11T21:38:40.943Z,1.17
2018-11-11T21:41:08.304Z,1.00
2018-11-11T21:43:35.593Z,0.93
2018-11-11T21:46:02.912Z,1.17
2018-11-11T21:48:30.230Z,1.10
2018-11-11T21:50:57.768Z,1.30
2018-11-11T21:53:29.169Z,0.90
2018-11-11T21:55:56.706Z,0.90
2018-11-11T21:58:24.019Z,1.10
2018-11-11T22:00:51.315Z,0.97
2018-11-11T22:03:18.624Z,1.17
2018-11-11T22:05:46.662Z,1.07
2018-11-11T22:08:14.020Z,1.00
2018-11-11T22:10:41.331Z,0.80
2018-11-11T22:13:08.659Z,1.00
2018-11-11T22:15:36.003Z,1.27
2018-11-11T22:18:03.363Z,1.02
2018-11-11T22:20:30.630Z,0.88
2018-11-11T22:22:58.106Z,0.83
2018-11-11T22:25:25.691Z,0.80
2018-11-11T22:27:53.111Z,1.17
2018-11-11T22:30:20.868Z,1.10
2018-11-11T22:32:48.234Z,1.20
2018-11-11T22:35:15.662Z,0.90
2018-11-11T22:37:42.988Z,0.90
2018-11-11T22:40:11.839Z,1.00
2018-11-11T22:42:39.113Z,0.80
2018-11-11T22:45:08.754Z,0.97
2018-11-11T22:47:36.513Z,0.72
2018-11-11T22:50:05.178Z,0.90
2018-11-11T22:52:32.601Z,0.80
2018-11-11T22:55:00.079Z,1.00
2018-11-11T22:57:27.454Z,0.88
2018-11-11T22:59:54.861Z,0.80
2018-11-11T23:02:22.216Z,1.10
2018-11-11T23:04:49.628Z,0.80
2018-11-11T23:07:16.957Z,1.00
2018-11-11T23:09:45.111Z,0.70
2018-11-11T23:12:12.549Z,1.10
2018-11-11T23:14:40.038Z,0.70
2018-11-11T23:17:07.452Z,0.90
2018-11-11T23:19:34.843Z,0.77
2018-11-11T23:22:02.250Z,0.70
2018-11-11T23:24:29.998Z,0.72
2018-11-11T23:26:57.396Z,0.90
2018-11-11T23:29:24.807Z,0.80
2018-11-11T23:31:52.253Z,0.70
2018-11-11T23:34:19.734Z,0.62
2018-11-11T23:36:47.318Z,0.70
2018-11-11T23:39:14.745Z,0.70
2018-11-11T23:41:42.154Z,0.70
2018-11-11T23:44:09.627Z,0.67
2018-11-11T23:46:37.643Z,0.62
2018-11-11T23:49:05.440Z,0.70
2018-11-11T23:51:33.770Z,0.70
2018-11-11T23:54:01.124Z,0.77
2018-11-11T23:56:28.427Z,0.60
2018-11-11T23:58:55.882Z,0.77
